Time;durP1;ratioP1;P1;durP2;ratioP2;P2;SDS_P1;SDS_P2;PMS_P1;PMS_P2;Temp;Humidity;BMP_temperature;BMP_pressure;BME280_temperature;BME280_humidity;BME280_pressure;Samples;Min_cycle;Max_cycle;Signal;HPM_P1;HPM_P2
2022/11/24 00:01:49;;;;;;;24.77;11.40;;;;;;;8.59;98.51;93602.03;5049678;28;20244;-79
2022/11/24 00:04:16;;;;;;;22.13;10.77;;;;;;;8.56;99.65;93595.53;5047795;28;20202;-79
2022/11/24 00:06:43;;;;;;;19.70;10.97;;;;;;;8.49;100.00;93600.81;5048076;28;20210;-79
2022/11/24 00:09:11;;;;;;;20.93;9.93;;;;;;;8.44;100.00;93598.16;5047833;28;20198;-79
2022/11/24 00:11:37;;;;;;;18.83;9.27;;;;;;;8.39;100.00;93594.69;5048904;28;20205;-78
2022/11/24 00:14:06;;;;;;;21.97;11.00;;;;;;;8.35;100.00;93596.16;5048789;28;20699;-78
2022/11/24 00:16:36;;;;;;;19.47;9.30;;;;;;;8.25;100.00;93608.88;5047398;28;20606;-80
2022/11/24 00:19:04;;;;;;;18.97;9.77;;;;;;;8.09;100.00;93596.63;5045854;28;20194;-78
2022/11/24 00:21:31;;;;;;;18.97;10.33;;;;;;;8.21;100.00;93600.78;5047389;28;20222;-78
2022/11/24 00:23:59;;;;;;;19.73;10.13;;;;;;;8.25;100.00;93611.47;5049971;28;20592;-79
2022/11/24 00:26:28;;;;;;;22.23;11.57;;;;;;;8.29;100.00;93597.06;5047829;28;20248;-79
2022/11/24 00:28:56;;;;;;;22.03;11.13;;;;;;;8.10;100.00;93606.78;5047048;28;20714;-80
2022/11/24 00:31:25;;;;;;;21.93;10.57;;;;;;;7.93;100.00;93600.72;5043961;28;20569;-79
2022/11/24 00:33:55;;;;;;;18.37;10.27;;;;;;;7.99;100.00;93610.94;5048800;28;20198;-80
2022/11/24 00:36:24;;;;;;;17.47;8.90;;;;;;;7.95;100.00;93604.66;5049544;28;20206;-78
2022/11/24 00:38:54;;;;;;;16.80;8.63;;;;;;;7.97;100.00;93607.00;5047418;28;20209;-79
2022/11/24 00:41:21;;;;;;;21.80;9.60;;;;;;;7.95;100.00;93596.91;5047147;28;20308;-79
2022/11/24 00:43:47;;;;;;;19.37;10.67;;;;;;;7.92;100.00;93604.31;5046576;28;20206;-79
2022/11/24 00:46:14;;;;;;;17.97;10.67;;;;;;;7.97;100.00;93610.38;5049350;28;20198;-80
2022/11/24 00:48:41;;;;;;;21.97;10.63;;;;;;;8.00;100.00;93617.69;5047862;28;20212;-79
2022/11/24 00:51:12;;;;;;;20.73;10.70;;;;;;;8.00;100.00;93629.84;5047252;28;20198;-78
2022/11/24 00:53:38;;;;;;;19.70;10.57;;;;;;;7.81;100.00;93613.69;5047022;28;20197;-78
2022/11/24 00:56:06;;;;;;;15.87;9.10;;;;;;;7.60;100.00;93601.31;5047642;28;20201;-78
2022/11/24 00:58:34;;;;;;;16.10;8.37;;;;;;;7.49;100.00;93619.41;5047742;28;20249;-78
2022/11/24 01:01:03;;;;;;;12.83;7.50;;;;;;;7.48;100.00;93597.94;5046698;28;20218;-77
2022/11/24 01:03:30;;;;;;;19.40;8.27;;;;;;;7.48;100.00;93623.00;5046153;28;20206;-81
2022/11/24 01:06:02;;;;;;;15.37;8.10;;;;;;;7.34;100.00;93623.22;5045943;28;20202;-78
2022/11/24 01:08:30;;;;;;;13.97;6.77;;;;;;;7.37;100.00;93602.09;5047957;28;20573;-78
2022/11/24 01:11:07;;;;;;;12.20;6.67;;;;;;;7.41;100.00;93607.63;5046861;28;20218;-78
2022/11/24 01:13:34;;;;;;;11.70;6.57;;;;;;;7.30;100.00;93603.22;5045251;28;20193;-79
2022/11/24 01:16:01;;;;;;;12.83;6.80;;;;;;;7.35;100.00;93600.75;5044023;28;20194;-79
2022/11/24 01:18:27;;;;;;;14.80;7.10;;;;;;;7.41;100.00;93603.25;5045669;28;20211;-79
2022/11/24 01:20:54;;;;;;;10.97;6.43;;;;;;;7.32;100.00;93608.94;5048054;28;20224;-78
2022/11/24 01:23:21;;;;;;;12.40;6.83;;;;;;;7.33;100.00;93615.69;5046599;28;20205;-80
2022/11/24 01:25:49;;;;;;;11.70;6.40;;;;;;;7.28;100.00;93608.59;5045861;28;20194;-78
2022/11/24 01:28:16;;;;;;;14.50;6.93;;;;;;;7.37;100.00;93621.97;5044805;28;20213;-79
2022/11/24 01:30:43;;;;;;;13.40;6.93;;;;;;;7.39;100.00;93618.16;5048085;28;20257;-78
2022/11/24 01:33:09;;;;;;;13.67;7.40;;;;;;;7.40;100.00;93616.38;5046756;28;20210;-78
2022/11/24 01:35:36;;;;;;;13.73;7.50;;;;;;;7.55;100.00;93629.66;5045119;28;20201;-78
2022/11/24 01:38:03;;;;;;;10.83;6.93;;;;;;;7.49;100.00;93625.38;5046453;28;20607;-78
2022/11/24 01:40:30;;;;;;;14.43;7.00;;;;;;;7.62;100.00;93632.88;5047141;28;20229;-77
2022/11/24 01:42:58;;;;;;;13.33;6.47;;;;;;;7.61;100.00;93626.16;5048951;28;20201;-77
2022/11/24 01:45:34;;;;;;;14.27;7.23;;;;;;;7.64;100.00;93630.09;5048021;28;20205;-79
2022/11/24 01:48:05;;;;;;;10.27;6.60;;;;;;;7.61;100.00;93615.81;5046119;28;20288;-79
2022/11/24 01:50:33;;;;;;;13.43;7.00;;;;;;;7.75;100.00;93624.91;5047851;28;20226;-79
2022/11/24 01:52:59;;;;;;;11.77;6.70;;;;;;;7.84;100.00;93618.41;5048812;28;20206;-80
2022/11/24 01:55:30;;;;;;;12.30;6.80;;;;;;;7.90;100.00;93616.69;5049854;28;20558;-79
2022/11/24 01:58:04;;;;;;;12.07;7.07;;;;;;;7.97;100.00;93622.53;5046393;28;20652;-78
2022/11/24 02:00:32;;;;;;;16.63;8.03;;;;;;;7.84;100.00;93617.59;5044936;28;20217;-79
2022/11/24 02:02:59;;;;;;;14.80;8.00;;;;;;;7.77;100.00;93617.72;5044832;28;20206;-78
2022/11/24 02:05:30;;;;;;;15.17;7.37;;;;;;;7.84;100.00;93622.78;5047795;28;20198;-79
2022/11/24 02:08:00;;;;;;;15.13;7.33;;;;;;;7.89;100.00;93618.50;5045513;28;20194;-78
2022/11/24 02:10:28;;;;;;;11.80;7.97;;;;;;;7.91;100.00;93621.63;5044883;28;20256;-78
2022/11/24 02:12:57;;;;;;;15.23;8.33;;;;;;;7.99;100.00;93623.09;5045299;28;20210;-78
2022/11/24 02:15:25;;;;;;;14.10;7.87;;;;;;;8.02;100.00;93624.44;5044762;28;20202;-77
2022/11/24 02:17:52;;;;;;;14.80;9.30;;;;;;;8.10;100.00;93632.66;5050236;28;20209;-78
2022/11/24 02:20:19;;;;;;;36.90;17.73;;;;;;;8.07;100.00;93625.34;5048572;28;20205;-78
2022/11/24 02:22:53;;;;;;;28.93;17.20;;;;;;;7.88;100.00;93616.13;5048621;28;20615;-77
2022/11/24 02:25:29;;;;;;;30.00;16.90;;;;;;;7.93;100.00;93631.78;5048834;28;20194;-77
2022/11/24 02:27:59;;;;;;;29.13;15.67;;;;;;;7.97;100.00;93635.47;5048800;28;20202;-77
2022/11/24 02:30:25;;;;;;;29.50;15.43;;;;;;;7.98;100.00;93632.66;5050541;28;20263;-77
2022/11/24 02:32:52;;;;;;;24.30;14.87;;;;;;;8.00;100.00;93635.81;5049153;28;20697;-78
2022/11/24 02:35:19;;;;;;;27.17;15.30;;;;;;;8.01;100.00;93631.41;5048332;28;20205;-77
2022/11/24 02:37:46;;;;;;;26.47;15.83;;;;;;;8.05;100.00;93640.31;5047444;28;20213;-78
2022/11/24 02:40:15;;;;;;;29.00;17.23;;;;;;;8.11;100.00;93636.78;5051542;28;20587;-78
2022/11/24 02:42:46;;;;;;;28.43;17.70;;;;;;;7.90;100.00;93616.69;5048288;28;20610;-77
2022/11/24 02:45:16;;;;;;;34.33;18.50;;;;;;;8.02;100.00;93634.78;5048579;28;20212;-77
2022/11/24 02:47:42;;;;;;;35.00;18.67;;;;;;;8.04;100.00;93636.13;5047570;28;20204;-78
2022/11/24 02:50:10;;;;;;;28.33;17.73;;;;;;;8.07;100.00;93634.91;5049053;28;20221;-77
2022/11/24 02:52:36;;;;;;;32.00;19.07;;;;;;;8.09;100.00;93641.41;5050774;28;20573;-78
2022/11/24 02:55:04;;;;;;;40.57;19.53;;;;;;;8.07;100.00;93624.53;5048902;28;20198;-78
2022/11/24 02:57:31;;;;;;;35.07;18.87;;;;;;;8.13;100.00;93634.00;5048252;28;20639;-77
2022/11/24 02:59:58;;;;;;;34.73;18.47;;;;;;;8.08;100.00;93626.13;5047393;28;20255;-78
2022/11/24 03:02:26;;;;;;;33.37;18.53;;;;;;;8.06;100.00;93633.31;5051125;28;20214;-77
2022/11/24 03:04:53;;;;;;;36.30;19.93;;;;;;;8.07;100.00;93627.94;5048997;28;20566;-77
2022/11/24 03:07:19;;;;;;;30.43;19.77;;;;;;;8.13;100.00;93642.53;5048649;28;20195;-78
2022/11/24 03:09:46;;;;;;;40.93;20.90;;;;;;;7.92;100.00;93643.91;5048287;28;20205;-79
2022/11/24 03:12:13;;;;;;;38.23;23.33;;;;;;;7.75;100.00;93644.81;5049209;28;20206;-78
2022/11/24 03:14:40;;;;;;;39.03;22.80;;;;;;;7.75;100.00;93652.56;5049693;28;20256;-79
2022/11/24 03:17:07;;;;;;;38.17;23.60;;;;;;;7.73;100.00;93637.28;5048142;28;20680;-79
2022/11/24 03:19:35;;;;;;;41.30;24.07;;;;;;;7.87;100.00;93648.19;5048140;28;20213;-79
2022/11/24 03:22:02;;;;;;;42.63;22.87;;;;;;;7.93;100.00;93649.88;5068227;22;20237;-80
2022/11/24 03:24:28;;;;;;;37.67;21.43;;;;;;;7.98;100.00;93657.75;5082590;28;20220;-77
2022/11/24 03:26:55;;;;;;;37.53;21.13;;;;;;;7.90;100.00;93663.25;5087233;28;20270;-79
2022/11/24 03:29:22;;;;;;;33.90;17.83;;;;;;;7.79;100.00;93666.63;5084517;28;20203;-79
2022/11/24 03:31:49;;;;;;;31.30;17.23;;;;;;;7.71;100.00;93665.16;5085177;28;20266;-79
2022/11/24 03:34:16;;;;;;;32.57;16.60;;;;;;;7.77;100.00;93666.84;5089114;28;20197;-80
2022/11/24 03:36:44;;;;;;;30.70;17.17;;;;;;;7.83;100.00;93675.50;5088775;28;20215;-80
2022/11/24 03:39:11;;;;;;;27.90;15.90;;;;;;;7.85;100.00;93671.69;5089287;28;20212;-81
2022/11/24 03:41:38;;;;;;;33.27;16.00;;;;;;;7.91;100.00;93675.94;5087861;28;20220;-77
2022/11/24 03:44:05;;;;;;;27.17;16.57;;;;;;;7.99;100.00;93683.38;5084187;28;20189;-77
2022/11/24 03:46:32;;;;;;;32.37;16.40;;;;;;;8.05;100.00;93681.72;5084370;28;20216;-79
2022/11/24 03:48:58;;;;;;;31.63;16.63;;;;;;;8.11;100.00;93680.00;5085671;28;20200;-79
2022/11/24 03:51:25;;;;;;;26.03;15.10;;;;;;;8.11;100.00;93675.59;5080435;28;20193;-78
2022/11/24 03:53:53;;;;;;;29.37;15.77;;;;;;;8.13;100.00;93680.56;5085244;28;20281;-77
2022/11/24 03:56:20;;;;;;;26.97;15.43;;;;;;;8.14;100.00;93687.31;5083242;28;20193;-81
2022/11/24 03:58:47;;;;;;;26.37;15.53;;;;;;;8.12;100.00;93692.72;5085251;28;20208;-80
2022/11/24 04:01:14;;;;;;;30.63;15.40;;;;;;;8.13;100.00;93698.69;5084825;28;20228;-81
2022/11/24 04:03:41;;;;;;;26.83;16.03;;;;;;;8.14;100.00;93705.44;5082683;28;20220;-80
2022/11/24 04:06:07;;;;;;;29.37;15.77;;;;;;;8.13;100.00;93703.84;5082883;28;20208;-80
2022/11/24 04:08:34;;;;;;;26.47;14.60;;;;;;;8.20;100.00;93699.31;5085748;28;20610;-80
2022/11/24 04:11:03;;;;;;;26.43;14.47;;;;;;;8.20;100.00;93699.31;5087652;28;20193;-80
2022/11/24 04:13:28;;;;;;;24.77;15.20;;;;;;;8.24;100.00;93703.84;5084159;28;20223;-79
2022/11/24 04:15:55;;;;;;;27.63;15.30;;;;;;;8.04;100.00;93708.56;5081641;28;21272;-77
2022/11/24 04:18:22;;;;;;;29.17;15.70;;;;;;;7.96;100.00;93712.28;5085376;28;20189;-78
2022/11/24 04:20:50;;;;;;;26.50;15.90;;;;;;;7.88;100.00;93709.22;5081984;28;20196;-78
2022/11/24 04:23:18;;;;;;;34.63;18.13;;;;;;;7.84;100.00;93715.88;5086226;28;20254;-78
2022/11/24 04:25:45;;;;;;;33.17;19.43;;;;;;;7.82;100.00;93716.09;5084937;28;20273;-78
2022/11/24 04:28:13;;;;;;;35.43;19.93;;;;;;;7.85;100.00;93714.88;5086023;28;20196;-79
2022/11/24 04:30:43;;;;;;;31.90;18.33;;;;;;;7.70;100.00;93717.91;5085159;28;20193;-77
2022/11/24 04:33:10;;;;;;;31.77;18.87;;;;;;;7.75;100.00;93724.97;5084912;28;20185;-78
2022/11/24 04:35:37;;;;;;;32.07;17.80;;;;;;;7.67;100.00;93723.53;5083885;28;20201;-78
2022/11/24 04:38:05;;;;;;;29.60;17.10;;;;;;;7.63;100.00;93716.41;5084780;28;20209;-78
2022/11/24 04:40:32;;;;;;;34.20;17.77;;;;;;;7.63;100.00;93731.94;5089484;28;20192;-79
2022/11/24 04:42:58;;;;;;;29.80;17.17;;;;;;;7.58;100.00;93724.06;5087098;28;20224;-79
2022/11/24 04:45:27;;;;;;;25.57;16.00;;;;;;;7.47;100.00;93715.28;5086879;28;20189;-78
2022/11/24 04:47:53;;;;;;;27.20;16.30;;;;;;;7.55;100.00;93729.66;5080479;28;20193;-77
2022/11/24 04:50:20;;;;;;;29.93;16.90;;;;;;;7.60;100.00;93719.44;5084112;28;20232;-78
2022/11/24 04:52:47;;;;;;;28.00;16.67;;;;;;;7.50;100.00;93724.38;5084926;28;20196;-79
2022/11/24 04:55:14;;;;;;;30.87;15.43;;;;;;;7.56;100.00;93731.25;5081666;28;20316;-79
2022/11/24 04:57:41;;;;;;;29.67;15.73;;;;;;;7.54;100.00;93734.03;5081350;28;20315;-78
2022/11/24 05:00:09;;;;;;;33.60;16.00;;;;;;;7.60;100.00;93738.34;5083389;28;20196;-78
2022/11/24 05:02:37;;;;;;;29.87;16.47;;;;;;;7.66;100.00;93734.84;5081663;28;20232;-77
2022/11/24 05:05:05;;;;;;;26.87;15.17;;;;;;;7.71;100.00;93732.38;5083148;28;20247;-78
2022/11/24 05:07:32;;;;;;;27.60;15.60;;;;;;;7.80;100.00;93735.44;5084964;28;20197;-78
2022/11/24 05:12:43;;;;;;;31.47;15.20;;;;;;;7.87;100.00;93734.34;5080918;28;20199;-77
2022/11/24 05:15:11;;;;;;;26.27;14.47;;;;;;;7.90;100.00;93746.81;5083040;28;20193;-78
2022/11/24 05:17:39;;;;;;;29.87;14.73;;;;;;;7.91;100.00;93738.03;5082942;28;20208;-77
2022/11/24 05:20:08;;;;;;;28.87;15.07;;;;;;;7.96;100.00;93743.31;5082649;28;20198;-78
2022/11/24 05:22:34;;;;;;;28.40;15.53;;;;;;;8.00;100.00;93743.66;5084828;28;20414;-79
2022/11/24 05:25:01;;;;;;;27.57;14.53;;;;;;;8.04;100.00;93746.59;5084519;28;20194;-80
2022/11/24 05:27:28;;;;;;;27.47;16.13;;;;;;;8.00;100.00;93738.47;5086702;28;20228;-80
2022/11/24 05:29:55;;;;;;;33.67;16.73;;;;;;;8.14;100.00;93752.00;5087750;28;20292;-79
2022/11/24 05:32:22;;;;;;;32.00;16.10;;;;;;;8.11;100.00;93736.94;5085623;28;20674;-80
2022/11/24 05:34:51;;;;;;;51.43;31.43;;;;;;;8.14;100.00;93754.59;5087027;28;20261;-80
2022/11/24 05:37:18;;;;;;;40.30;23.00;;;;;;;8.17;100.00;93761.88;5085361;28;20261;-78
2022/11/24 05:39:45;;;;;;;36.00;21.50;;;;;;;8.12;100.00;93741.88;5084435;28;20265;-78
2022/11/24 05:44:56;;;;;;;39.90;23.80;;;;;;;8.34;100.00;93761.00;5087042;28;20200;-78
2022/11/24 05:47:24;;;;;;;42.03;22.50;;;;;;;8.40;100.00;93769.69;5088698;28;20220;-79
2022/11/24 05:49:52;;;;;;;37.73;21.50;;;;;;;8.47;100.00;93778.13;5087332;28;20606;-80
2022/11/24 05:52:19;;;;;;;34.27;19.27;;;;;;;8.49;100.00;93776.09;5088991;28;20193;-77
2022/11/24 05:54:46;;;;;;;30.27;17.83;;;;;;;8.38;100.00;93777.69;5086299;28;21905;-78
2022/11/24 05:57:13;;;;;;;32.97;17.93;;;;;;;8.37;100.00;93772.72;5088025;28;20204;-78
2022/11/24 05:59:40;;;;;;;32.00;17.87;;;;;;;8.47;100.00;93773.75;5087572;28;20201;-78
2022/11/24 06:02:07;;;;;;;30.77;19.13;;;;;;;8.56;100.00;93776.78;5087205;28;20559;-77
2022/11/24 06:04:33;;;;;;;31.37;18.83;;;;;;;8.58;100.00;93779.91;5085876;28;20276;-77
2022/11/24 06:07:01;;;;;;;36.10;19.43;;;;;;;8.57;100.00;93779.13;5088293;28;20196;-76
2022/11/24 06:09:28;;;;;;;33.97;18.87;;;;;;;8.61;100.00;93783.84;5053163;28;20213;-77
2022/11/24 06:11:55;;;;;;;36.20;16.70;;;;;;;8.65;100.00;93787.56;5086929;28;20203;-77
2022/11/24 06:14:22;;;;;;;31.67;16.80;;;;;;;8.67;100.00;93786.31;5085152;28;20203;-77
2022/11/24 06:16:49;;;;;;;37.60;17.63;;;;;;;8.75;100.00;93792.94;5087085;28;20192;-78
2022/11/24 06:19:16;;;;;;;39.50;18.57;;;;;;;8.83;100.00;93797.81;5086168;28;20209;-79
2022/11/24 06:21:43;;;;;;;35.20;17.83;;;;;;;8.85;100.00;93790.59;5086842;28;20236;-77
2022/11/24 06:24:11;;;;;;;35.97;18.80;;;;;;;8.84;100.00;93789.78;5086083;28;20194;-76
2022/11/24 06:26:38;;;;;;;29.13;17.03;;;;;;;8.87;100.00;93797.09;5083437;28;20707;-78
2022/11/24 06:29:05;;;;;;;39.20;17.80;;;;;;;8.84;100.00;93797.56;5084545;28;20204;-77
2022/11/24 06:31:32;;;;;;;40.63;20.00;;;;;;;8.80;100.00;93793.84;5087439;28;20200;-78
2022/11/24 06:33:59;;;;;;;40.93;21.67;;;;;;;8.89;100.00;93804.63;5089927;28;20193;-78
2022/11/24 06:36:27;;;;;;;36.23;19.50;;;;;;;8.92;100.00;93807.56;5087363;28;20188;-78
2022/11/24 06:38:54;;;;;;;38.80;18.87;;;;;;;9.01;100.00;93811.38;5081561;28;20201;-78
2022/11/24 06:41:22;;;;;;;41.87;21.10;;;;;;;9.08;100.00;93832.00;5086407;28;20200;-77
2022/11/24 06:43:49;;;;;;;57.63;27.60;;;;;;;9.05;100.00;93833.25;5086504;28;20201;-78
2022/11/24 06:46:15;;;;;;;65.97;30.67;;;;;;;8.97;100.00;93843.16;5088225;28;20197;-79
2022/11/24 06:48:42;;;;;;;49.87;28.40;;;;;;;8.92;100.00;93853.41;5085105;28;20189;-78
2022/11/24 06:51:13;;;;;;;54.03;27.73;;;;;;;8.77;100.00;93853.91;5085268;28;21586;-79
2022/11/24 06:53:40;;;;;;;46.80;26.07;;;;;;;8.60;100.00;93854.81;5084090;28;20289;-79
2022/11/24 06:56:09;;;;;;;47.63;25.30;;;;;;;8.71;100.00;93866.97;5084258;28;20201;-78
2022/11/24 06:58:43;;;;;;;51.20;25.50;;;;;;;8.69;100.00;93856.81;5084376;28;20208;-78
2022/11/24 07:01:10;;;;;;;45.50;20.70;;;;;;;8.80;100.00;93870.78;5083473;28;20279;-77
2022/11/24 07:03:36;;;;;;;39.57;20.63;;;;;;;8.65;100.00;93867.84;5082469;28;20221;-78
2022/11/24 07:06:03;;;;;;;35.03;18.70;;;;;;;8.57;100.00;93865.59;5085006;28;20203;-78
2022/11/24 07:08:30;;;;;;;37.50;16.83;;;;;;;8.79;100.00;93880.34;5083214;28;20193;-78
2022/11/24 07:10:57;;;;;;;30.43;16.83;;;;;;;8.80;100.00;93891.50;5081960;28;20267;-79
2022/11/24 07:13:24;;;;;;;32.17;17.00;;;;;;;8.76;100.00;93888.56;5082810;28;20203;-77
2022/11/24 07:15:52;;;;;;;36.87;17.33;;;;;;;8.80;100.00;93894.09;5085158;28;20196;-79
2022/11/24 07:18:19;;;;;;;35.37;16.53;;;;;;;8.81;100.00;93900.84;5085486;28;20281;-77
2022/11/24 07:20:46;;;;;;;28.30;15.17;;;;;;;8.88;100.00;93904.13;5082963;28;20225;-78
2022/11/24 07:23:12;;;;;;;29.23;14.97;;;;;;;8.90;100.00;93910.66;5080841;28;20212;-78
2022/11/24 07:25:39;;;;;;;24.30;12.53;;;;;;;8.81;100.00;93899.03;5084475;28;20205;-79
2022/11/24 07:28:06;;;;;;;22.87;11.70;;;;;;;8.62;100.00;93899.38;5087337;28;20202;-81
2022/11/24 07:30:33;;;;;;;18.57;10.40;;;;;;;8.57;100.00;93909.63;5088686;28;20201;-81
2022/11/24 07:33:02;;;;;;;18.00;11.03;;;;;;;8.44;100.00;93890.69;5088858;28;20243;-83
2022/11/24 07:35:30;;;;;;;19.90;10.93;;;;;;;8.46;100.00;93916.34;5085218;28;20212;-81
2022/11/24 07:37:58;;;;;;;15.50;10.73;;;;;;;8.32;100.00;93917.56;5087281;28;20208;-82
2022/11/24 07:40:26;;;;;;;20.20;11.60;;;;;;;8.16;100.00;93918.19;5085412;28;20208;-82
2022/11/24 07:42:53;;;;;;;21.43;11.57;;;;;;;8.13;100.00;93909.06;5087151;28;20307;-82
2022/11/24 07:45:20;;;;;;;19.77;12.80;;;;;;;8.17;100.00;93917.16;5081565;28;20258;-80
2022/11/24 07:47:47;;;;;;;17.13;11.70;;;;;;;7.99;100.00;93916.19;5078795;28;20724;-76
2022/11/24 07:50:16;;;;;;;17.73;11.97;;;;;;;8.07;100.00;93911.72;5084016;28;20213;-76
2022/11/24 07:52:42;;;;;;;21.17;12.07;;;;;;;8.04;100.00;93933.66;5083421;28;20251;-75
2022/11/24 07:55:10;;;;;;;21.37;13.10;;;;;;;7.87;100.00;93936.09;5077697;28;20196;-77
2022/11/24 07:57:37;;;;;;;17.37;12.00;;;;;;;7.79;100.00;93940.78;5075172;28;20571;-79
2022/11/24 08:00:05;;;;;;;21.20;12.53;;;;;;;7.71;100.00;93947.00;5085167;28;20202;-80
2022/11/24 08:02:32;;;;;;;17.10;11.67;;;;;;;7.66;100.00;93954.63;5088755;28;20324;-78
2022/11/24 08:04:59;;;;;;;21.47;12.70;;;;;;;7.64;100.00;93954.06;5087137;28;20204;-79
2022/11/24 08:07:27;;;;;;;21.53;11.83;;;;;;;7.58;100.00;93956.72;5082964;28;20208;-79
2022/11/24 08:09:54;;;;;;;18.17;11.47;;;;;;;7.59;100.00;93955.72;5078577;28;20203;-79
2022/11/24 08:12:21;;;;;;;17.93;11.20;;;;;;;7.46;100.00;93956.66;5080634;28;20208;-79
2022/11/24 08:14:49;;;;;;;17.73;11.37;;;;;;;7.42;100.00;93968.41;5084916;28;20204;-79
2022/11/24 08:17:16;;;;;;;20.57;11.20;;;;;;;7.46;100.00;93959.25;5087027;28;20207;-79
2022/11/24 08:19:43;;;;;;;16.67;10.83;;;;;;;7.42;100.00;93968.41;5086942;28;20201;-78
2022/11/24 08:22:11;;;;;;;18.27;11.07;;;;;;;7.51;100.00;93969.72;5086094;28;20236;-80
2022/11/24 08:24:45;;;;;;;22.17;11.03;;;;;;;7.50;100.00;93957.81;5082844;28;20197;-80
2022/11/24 08:27:12;;;;;;;15.30;10.40;;;;;;;7.35;100.00;93978.84;5081195;28;20253;-79
2022/11/24 08:29:38;;;;;;;14.23;9.10;;;;;;;7.13;100.00;93984.66;5084164;28;20197;-79
2022/11/24 08:32:06;;;;;;;16.17;9.37;;;;;;;7.00;100.00;93989.91;5084032;28;20193;-80
2022/11/24 08:34:32;;;;;;;14.97;9.73;;;;;;;7.02;100.00;93985.31;5086345;28;20200;-79
2022/11/24 08:36:59;;;;;;;15.33;8.63;;;;;;;7.03;100.00;93989.50;5082466;28;20197;-80
2022/11/24 08:39:26;;;;;;;14.57;8.80;;;;;;;6.81;100.00;93992.44;5086271;28;20196;-81
2022/11/24 08:41:54;;;;;;;15.40;8.40;;;;;;;6.77;100.00;93993.09;5087829;28;20858;-78
2022/11/24 08:44:21;;;;;;;14.37;8.90;;;;;;;6.68;100.00;93989.97;5084763;28;20717;-80
2022/11/24 08:46:48;;;;;;;12.77;7.93;;;;;;;6.69;100.00;93994.16;5085310;28;20193;-81
2022/11/24 08:49:17;;;;;;;10.20;6.40;;;;;;;6.64;100.00;94006.06;5086492;28;20323;-80
2022/11/24 08:51:45;;;;;;;10.90;6.40;;;;;;;6.48;100.00;94011.75;5086264;28;20649;-80
2022/11/24 08:54:14;;;;;;;8.73;6.10;;;;;;;6.54;100.00;94005.75;5086685;28;20224;-78
2022/11/24 08:56:41;;;;;;;7.57;5.10;;;;;;;6.48;100.00;94006.59;5081935;28;20307;-81
2022/11/24 08:59:12;;;;;;;6.40;4.20;;;;;;;6.39;100.00;94011.22;5087306;28;20207;-80
2022/11/24 09:01:40;;;;;;;9.13;5.03;;;;;;;6.32;100.00;94017.44;5087951;28;20291;-81
2022/11/24 09:04:07;;;;;;;8.03;6.00;;;;;;;6.38;100.00;94022.53;5085520;28;20227;-80
2022/11/24 09:06:34;;;;;;;10.27;7.47;;;;;;;6.35;100.00;94004.09;5087572;28;20722;-81
2022/11/24 09:09:01;;;;;;;16.70;9.70;;;;;;;6.44;100.00;94026.06;5085790;28;20203;-80
2022/11/24 09:11:29;;;;;;;13.83;8.70;;;;;;;6.45;100.00;94025.88;5082217;28;20214;-80
2022/11/24 09:13:56;;;;;;;8.37;5.80;;;;;;;6.48;100.00;94040.16;5084309;28;20195;-80
2022/11/24 09:16:26;;;;;;;5.93;4.50;;;;;;;6.54;100.00;94034.16;5085771;28;20211;-82
2022/11/24 09:18:57;;;;;;;6.47;4.60;;;;;;;6.58;100.00;94043.06;5085996;28;20199;-80
2022/11/24 09:21:24;;;;;;;8.93;5.80;;;;;;;6.58;100.00;94036.09;5083539;28;20294;-79
2022/11/24 09:23:53;;;;;;;10.67;6.93;;;;;;;6.42;100.00;94025.50;5084503;28;20333;-80
2022/11/24 09:26:22;;;;;;;9.57;4.83;;;;;;;6.39;100.00;94042.19;5083283;28;20200;-83
2022/11/24 09:28:53;;;;;;;11.80;6.30;;;;;;;6.40;100.00;94036.03;5085630;28;20209;-82
2022/11/24 09:31:20;;;;;;;11.37;3.60;;;;;;;6.43;100.00;94039.97;5088237;28;20725;-80
2022/11/24 09:33:49;;;;;;;6.30;3.33;;;;;;;6.40;100.00;94024.91;5087635;28;20326;-81
2022/11/24 09:36:15;;;;;;;8.00;4.73;;;;;;;6.40;100.00;94045.56;5086490;28;20202;-81
2022/11/24 09:38:43;;;;;;;8.53;4.20;;;;;;;6.31;100.00;94050.16;5081450;28;20896;-81
2022/11/24 09:41:38;;;;;;;6.20;3.87;;;;;;;6.26;100.00;94044.84;5083708;28;20213;-80
2022/11/24 09:44:16;;;;;;;5.37;3.90;;;;;;;6.27;100.00;94049.00;5077406;28;20699;-79
2022/11/24 09:46:54;;;;;;;3.37;2.70;;;;;;;6.29;100.00;94047.00;5082112;28;20198;-78
2022/11/24 09:49:58;;;;;;;9.90;4.60;;;;;;;6.29;100.00;94052.19;5081410;28;20182;-79
2022/11/24 09:52:40;;;;;;;7.40;4.37;;;;;;;6.10;100.00;94047.88;5078748;28;20196;-79
2022/11/24 09:55:28;;;;;;;8.53;4.47;;;;;;;6.17;100.00;94058.97;5081259;28;20209;-79
2022/11/24 09:58:06;;;;;;;7.93;4.73;;;;;;;6.20;100.00;94056.75;5083133;28;20214;-79
2022/11/24 10:00:37;;;;;;;7.33;4.30;;;;;;;6.15;100.00;94058.38;5080824;28;20554;-79
2022/11/24 10:03:05;;;;;;;4.17;2.90;;;;;;;5.93;100.00;94032.09;5085565;28;20222;-80
2022/11/24 10:05:36;;;;;;;8.23;4.00;;;;;;;6.00;100.00;94047.53;5077979;28;20200;-81
2022/11/24 10:08:19;;;;;;;5.33;3.50;;;;;;;5.89;100.00;94048.94;5077039;28;20194;-79
2022/11/24 10:10:54;;;;;;;5.17;3.83;;;;;;;5.78;100.00;94053.91;5080900;28;21077;-78
2022/11/24 10:13:36;;;;;;;4.80;3.93;;;;;;;5.70;100.00;94055.75;5086975;28;20503;-80
2022/11/24 10:16:14;;;;;;;7.37;4.40;;;;;;;5.75;100.00;94047.38;5078136;28;20211;-79
2022/11/24 10:19:04;;;;;;;7.57;4.83;;;;;;;5.73;100.00;94057.91;5081419;28;20198;-80
2022/11/24 10:21:52;;;;;;;5.30;3.93;;;;;;;5.81;100.00;94045.78;5083898;28;20708;-82
2022/11/24 10:24:43;;;;;;;5.00;3.93;;;;;;;5.74;100.00;94061.28;5083402;28;20215;-80
2022/11/24 10:27:17;;;;;;;7.47;4.53;;;;;;;5.74;100.00;94049.16;5082861;28;20199;-81
2022/11/24 10:29:45;;;;;;;6.00;4.30;;;;;;;5.87;100.00;94057.88;5086738;28;20289;-80
2022/11/24 10:32:17;;;;;;;4.43;3.53;;;;;;;5.67;100.00;94060.50;5088570;28;20633;-82
2022/11/24 10:34:46;;;;;;;5.70;4.10;;;;;;;5.60;100.00;94065.66;5088517;28;20195;-81
2022/11/24 10:37:21;;;;;;;8.53;4.50;;;;;;;5.53;100.00;94051.22;5086660;28;20190;-79
2022/11/24 10:39:56;;;;;;;4.87;3.73;;;;;;;5.48;100.00;94066.50;5085725;28;20198;-80
2022/11/24 10:42:27;;;;;;;6.90;5.13;;;;;;;5.65;100.00;94057.34;5090681;28;20229;-80
2022/11/24 10:45:10;;;;;;;7.10;5.03;;;;;;;5.54;100.00;94048.44;5085790;28;20206;-80
2022/11/24 10:47:38;;;;;;;6.80;5.17;;;;;;;5.65;100.00;94065.88;5093251;28;20264;-81
2022/11/24 10:50:17;;;;;;;6.17;4.17;;;;;;;5.55;100.00;94068.06;5089295;28;20214;-78
2022/11/24 10:52:50;;;;;;;7.37;4.90;;;;;;;5.58;100.00;94065.09;5091295;28;20198;-81
2022/11/24 10:55:17;;;;;;;8.00;5.87;;;;;;;5.73;100.00;94064.84;5089927;28;20202;-80
2022/11/24 10:57:44;;;;;;;10.03;6.47;;;;;;;5.73;100.00;94070.00;5088197;28;20286;-80
2022/11/24 11:00:33;;;;;;;8.40;5.50;;;;;;;5.83;100.00;94060.03;5090801;28;20193;-80
2022/11/24 11:03:18;;;;;;;8.70;6.20;;;;;;;5.67;100.00;94056.16;5086802;28;20221;-80
2022/11/24 11:05:50;;;;;;;7.87;5.40;;;;;;;5.60;100.00;94064.88;5089554;28;20207;-80
2022/11/24 11:08:22;;;;;;;11.30;6.63;;;;;;;5.70;100.00;94066.06;5090430;28;20219;-80
2022/11/24 11:10:51;;;;;;;9.03;5.73;;;;;;;5.68;100.00;94067.25;5082404;28;20199;-79
2022/11/24 11:13:23;;;;;;;9.70;5.80;;;;;;;5.68;100.00;94070.59;5086621;28;20198;-80
2022/11/24 11:15:50;;;;;;;6.77;4.80;;;;;;;5.67;100.00;94070.81;5087361;28;20205;-80
2022/11/24 11:18:19;;;;;;;8.37;5.40;;;;;;;5.69;100.00;94081.69;5086900;28;20201;-79
2022/11/24 11:20:51;;;;;;;7.83;5.57;;;;;;;5.59;100.00;94081.34;5084810;28;20218;-79
2022/11/24 11:23:26;;;;;;;9.17;5.80;;;;;;;5.65;100.00;94085.69;5082010;28;20222;-80
2022/11/24 11:26:17;;;;;;;8.53;5.70;;;;;;;5.69;100.00;94077.34;5083565;28;20224;-80
2022/11/24 11:28:58;;;;;;;11.20;6.13;;;;;;;5.80;100.00;94080.31;5091126;28;20202;-81
2022/11/24 11:31:25;;;;;;;11.97;6.93;;;;;;;5.89;100.00;94085.03;5085282;28;20215;-81
2022/11/24 11:33:57;;;;;;;10.40;6.87;;;;;;;5.90;100.00;94086.66;5086140;28;20713;-82
2022/11/24 11:36:25;;;;;;;13.23;6.80;;;;;;;5.94;99.75;94093.00;5087161;28;20199;-81